createdAt,value
2023-05-01T00:01:33.301Z,5.70
2023-05-01T00:04:00.748Z,5.45
2023-05-01T00:06:28.067Z,5.46
2023-05-01T00:08:56.777Z,5.56
2023-05-01T00:11:23.917Z,5.67
2023-05-01T00:13:51.638Z,5.67
2023-05-01T00:16:18.764Z,5.45
2023-05-01T00:18:46.057Z,5.34
2023-05-01T00:21:13.220Z,5.81
2023-05-01T00:23:40.342Z,5.89
2023-05-01T00:26:09.000Z,5.65
2023-05-01T00:28:36.322Z,5.30
2023-05-01T00:31:03.412Z,5.16
2023-05-01T00:33:30.562Z,5.30
2023-05-01T00:35:57.661Z,5.39
2023-05-01T00:38:25.019Z,5.49
2023-05-01T00:40:52.117Z,5.58
2023-05-01T00:43:20.650Z,5.75
2023-05-01T00:45:47.893Z,5.45
2023-05-01T00:48:15.421Z,5.00
2023-05-01T00:50:45.731Z,5.30
2023-05-01T00:53:13.115Z,5.41
2023-05-01T00:55:42.847Z,5.65
2023-05-01T00:58:11.492Z,5.49
2023-05-01T01:00:40.036Z,5.38
2023-05-01T01:03:07.667Z,5.32
2023-05-01T01:05:45.167Z,5.55
2023-05-01T01:08:24.094Z,5.38
2023-05-01T01:10:57.761Z,5.54
2023-05-01T01:13:32.727Z,5.53
2023-05-01T01:16:09.370Z,5.40
2023-05-01T01:18:43.979Z,5.03
2023-05-01T01:21:21.683Z,4.96
2023-05-01T01:24:12.985Z,5.24
2023-05-01T01:27:01.242Z,5.22
2023-05-01T01:29:48.517Z,4.98
2023-05-01T01:32:53.129Z,5.18
2023-05-01T01:35:27.019Z,5.34
2023-05-01T01:38:03.205Z,5.15
2023-05-01T01:40:41.786Z,5.23
2023-05-01T01:43:17.205Z,5.19
2023-05-01T01:45:50.066Z,4.48
2023-05-01T01:48:26.566Z,4.58
2023-05-01T01:50:59.296Z,4.31
2023-05-01T01:53:31.199Z,3.94
2023-05-01T01:56:03.861Z,3.93
2023-05-01T01:58:32.983Z,3.99
2023-05-01T02:01:01.422Z,3.53
2023-05-01T02:03:31.829Z,3.40
2023-05-01T02:06:01.891Z,3.34
2023-05-01T02:08:31.881Z,2.92
2023-05-01T02:11:02.331Z,3.34
2023-05-01T02:13:31.181Z,3.25
2023-05-01T02:16:00.836Z,3.13
2023-05-01T02:18:31.204Z,3.53
2023-05-01T02:21:02.282Z,3.13
2023-05-01T02:23:30.906Z,3.16
2023-05-01T02:26:03.189Z,3.11
2023-05-01T02:28:30.929Z,3.27
2023-05-01T02:30:58.855Z,3.04
2023-05-01T02:33:26.056Z,3.03
2023-05-01T02:35:53.202Z,2.81
2023-05-01T02:38:21.966Z,2.69
2023-05-01T02:40:53.804Z,3.00
2023-05-01T02:43:22.985Z,2.54
2023-05-01T02:45:53.687Z,2.59
2023-05-01T02:48:25.599Z,2.54
2023-05-01T02:50:54.328Z,2.26
2023-05-01T02:53:23.308Z,2.32
2023-05-01T02:55:51.094Z,2.82
2023-05-01T02:58:19.319Z,2.58
2023-05-01T03:00:49.102Z,2.66
2023-05-01T03:03:16.523Z,2.22
2023-05-01T03:05:44.023Z,2.41
2023-05-01T03:08:11.206Z,2.47
2023-05-01T03:10:41.688Z,2.60
2023-05-01T03:13:08.759Z,2.21
2023-05-01T03:15:35.926Z,2.97
2023-05-01T03:18:03.119Z,2.88
2023-05-01T03:20:30.363Z,2.92
2023-05-01T03:22:57.969Z,2.75
2023-05-01T03:25:25.141Z,2.68
2023-05-01T03:27:55.036Z,2.72
2023-05-01T03:30:22.628Z,2.50
2023-05-01T03:32:49.791Z,3.02
2023-05-01T03:35:17.145Z,3.66
2023-05-01T03:37:44.260Z,4.28
2023-05-01T03:40:12.331Z,4.15
2023-05-01T03:42:39.400Z,4.20
2023-05-01T03:45:09.680Z,4.51
2023-05-01T03:47:36.921Z,4.60
2023-05-01T03:50:05.084Z,4.83
2023-05-01T03:52:32.219Z,4.70
2023-05-01T03:54:59.388Z,4.85
2023-05-01T03:57:26.646Z,4.07
2023-05-01T03:59:54.144Z,4.38
2023-05-01T04:02:23.184Z,4.05
2023-05-01T04:04:50.381Z,4.10
2023-05-01T04:07:17.802Z,4.49
2023-05-01T04:09:44.881Z,4.36
2023-05-01T04:12:12.442Z,3.82
2023-05-01T04:14:39.618Z,4.40
2023-05-01T04:17:06.868Z,4.41
2023-05-01T04:19:35.440Z,4.42
2023-05-01T04:22:02.591Z,3.82
2023-05-01T04:24:29.703Z,3.65
2023-05-01T04:26:56.914Z,3.87
2023-05-01T04:29:24.062Z,3.34
2023-05-01T04:31:51.265Z,3.13
2023-05-01T04:34:18.440Z,2.70
2023-05-01T04:36:47.064Z,2.88
2023-05-01T04:39:14.161Z,2.84
2023-05-01T04:41:41.224Z,2.47
2023-05-01T04:44:08.485Z,2.43
2023-05-01T04:46:35.672Z,2.52
2023-05-01T04:49:02.966Z,2.48
2023-05-01T04:51:30.128Z,2.51
2023-05-01T04:53:58.730Z,2.43
2023-05-01T04:56:26.128Z,2.61
2023-05-01T04:58:53.446Z,2.56
2023-05-01T05:01:20.528Z,2.46
2023-05-01T05:03:50.083Z,2.30
2023-05-01T05:06:17.703Z,2.11
2023-05-01T05:08:45.102Z,2.09
2023-05-01T05:11:13.649Z,2.11
2023-05-01T05:13:40.791Z,2.05
2023-05-01T05:16:08.047Z,2.07
2023-05-01T05:18:35.210Z,1.97
2023-05-01T05:21:04.287Z,1.88
2023-05-01T05:23:31.597Z,1.75
2023-05-01T05:26:00.409Z,1.94
2023-05-01T05:28:29.208Z,2.04
2023-05-01T05:30:56.377Z,1.09
2023-05-01T05:33:24.089Z,1.11
2023-05-01T05:35:51.838Z,1.32
2023-05-01T05:38:19.013Z,1.10
2023-05-01T05:40:46.291Z,1.06
2023-05-01T05:43:13.414Z,0.96
2023-05-01T05:45:42.022Z,1.10
2023-05-01T05:48:09.259Z,0.98
2023-05-01T05:50:36.525Z,1.15
2023-05-01T05:53:03.706Z,1.25
2023-05-01T05:55:30.811Z,0.94
2023-05-01T05:57:57.944Z,1.22
2023-05-01T06:00:25.081Z,1.30
2023-05-01T06:02:53.663Z,1.28
2023-05-01T06:05:20.879Z,1.14
2023-05-01T06:07:47.954Z,1.23
2023-05-01T06:10:15.269Z,1.23
2023-05-01T06:12:46.027Z,1.23
2023-05-01T06:15:19.054Z,1.30
2023-05-01T06:17:46.462Z,1.43
2023-05-01T06:20:15.163Z,1.25
2023-05-01T06:22:42.336Z,1.17
2023-05-01T06:25:10.313Z,1.19
2023-05-01T06:27:37.390Z,1.10
2023-05-01T06:30:05.256Z,1.12
2023-05-01T06:32:32.516Z,0.80
2023-05-01T06:34:59.674Z,0.88
2023-05-01T06:37:28.300Z,0.84
2023-05-01T06:39:55.781Z,0.89
2023-05-01T06:42:23.170Z,0.85
2023-05-01T06:44:50.226Z,0.88
2023-05-01T06:47:17.470Z,0.76
2023-05-01T06:49:44.728Z,0.74
2023-05-01T06:52:12.075Z,0.92
2023-05-01T06:54:40.588Z,0.93
2023-05-01T06:57:07.735Z,1.09
2023-05-01T06:59:34.869Z,1.15
2023-05-01T07:02:02.108Z,1.46
2023-05-01T07:04:29.470Z,1.40
2023-05-01T07:06:56.529Z,1.32
2023-05-01T07:09:23.671Z,1.15
2023-05-01T07:11:52.571Z,1.34
2023-05-01T07:14:19.631Z,1.24
2023-05-01T07:16:46.736Z,1.29
2023-05-01T07:19:13.911Z,1.23
2023-05-01T07:21:41.733Z,1.23
2023-05-01T07:24:08.832Z,1.24
2023-05-01T07:26:36.052Z,1.30
2023-05-01T07:29:04.899Z,1.30
2023-05-01T07:31:32.107Z,1.32
2023-05-01T07:33:59.200Z,1.22
2023-05-01T07:36:26.335Z,1.40
2023-05-01T07:38:53.571Z,1.50
2023-05-01T07:41:20.627Z,1.24
2023-05-01T07:43:47.773Z,1.26
2023-05-01T07:46:16.463Z,1.34
2023-05-01T07:48:43.564Z,1.73
2023-05-01T07:51:10.811Z,2.85
2023-05-01T07:53:37.987Z,2.31
2023-05-01T07:56:06.219Z,2.57
2023-05-01T07:58:33.418Z,2.90
2023-05-01T08:01:00.985Z,3.69
2023-05-01T08:03:30.655Z,4.20
2023-05-01T08:05:58.822Z,4.90
2023-05-01T08:08:26.037Z,4.83
2023-05-01T08:10:54.972Z,4.35
2023-05-01T08:13:22.403Z,3.69
2023-05-01T08:15:49.898Z,2.24
2023-05-01T08:18:17.232Z,2.12
2023-05-01T08:20:46.135Z,1.99
2023-05-01T08:23:13.337Z,2.11
2023-05-01T08:25:40.376Z,1.80
2023-05-01T08:28:07.650Z,1.65
2023-05-01T08:30:34.920Z,1.60
2023-05-01T08:33:02.187Z,1.66
2023-05-01T08:35:29.457Z,1.74
2023-05-01T08:37:58.117Z,1.83
2023-05-01T08:40:26.655Z,1.71
2023-05-01T08:42:54.698Z,1.86
2023-05-01T08:45:24.395Z,1.75
2023-05-01T08:47:55.000Z,1.90
2023-05-01T08:50:23.773Z,2.09
2023-05-01T08:52:52.308Z,2.07
2023-05-01T08:55:22.493Z,2.34
2023-05-01T08:57:51.492Z,3.01
2023-05-01T09:00:21.240Z,2.92
2023-05-01T09:02:50.821Z,3.57
2023-05-01T09:05:19.649Z,3.50
2023-05-01T09:07:47.698Z,3.21
2023-05-01T09:10:17.531Z,3.47
2023-05-01T09:12:52.564Z,3.59
2023-05-01T09:15:19.772Z,3.59
2023-05-01T09:17:48.265Z,3.47
2023-05-01T09:20:17.191Z,3.70
2023-05-01T09:22:44.581Z,3.38
2023-05-01T09:25:12.121Z,3.51
2023-05-01T09:27:39.256Z,3.05
2023-05-01T09:30:09.386Z,3.18
2023-05-01T09:32:36.714Z,3.45
2023-05-01T09:35:12.050Z,3.40
2023-05-01T09:37:39.778Z,3.39
2023-05-01T09:40:09.424Z,3.54
2023-05-01T09:42:38.151Z,3.53
2023-05-01T09:45:13.092Z,3.77
2023-05-01T09:47:41.396Z,3.24
2023-05-01T09:50:09.946Z,3.43
2023-05-01T09:52:37.138Z,3.41
2023-05-01T09:55:15.613Z,3.46
2023-05-01T09:57:44.052Z,3.48
2023-05-01T10:00:14.570Z,3.66
2023-05-01T10:02:44.457Z,4.05
2023-05-01T10:05:12.518Z,3.99
2023-05-01T10:07:40.673Z,4.03
2023-05-01T10:10:18.516Z,4.07
2023-05-01T10:12:45.934Z,4.24
2023-05-01T10:15:24.710Z,3.80
2023-05-01T10:17:56.084Z,3.45
2023-05-01T10:20:23.398Z,3.59
2023-05-01T10:22:50.589Z,4.11
2023-05-01T10:25:18.902Z,4.35
2023-05-01T10:27:47.415Z,4.54
2023-05-01T10:30:18.897Z,4.02
2023-05-01T10:32:46.697Z,3.40
2023-05-01T10:35:26.500Z,3.43
2023-05-01T10:38:01.987Z,3.69
2023-05-01T10:40:48.400Z,3.18
2023-05-01T10:43:18.059Z,4.26
2023-05-01T10:45:48.109Z,4.48
2023-05-01T10:48:47.265Z,4.31
2023-05-01T10:51:15.893Z,3.14
2023-05-01T10:53:44.931Z,3.08
2023-05-01T10:56:43.186Z,3.06
2023-05-01T10:59:10.932Z,3.17
2023-05-01T11:01:40.428Z,3.35
2023-05-01T11:04:28.910Z,3.45
2023-05-01T11:07:16.344Z,3.38
2023-05-01T11:09:45.562Z,3.36
2023-05-01T11:12:14.950Z,3.02
2023-05-01T11:15:04.994Z,2.95
2023-05-01T11:17:49.171Z,2.83
2023-05-01T11:20:50.167Z,2.81
2023-05-01T11:23:22.209Z,2.60
2023-05-01T11:25:49.630Z,2.72
2023-05-01T11:28:21.034Z,2.94
2023-05-01T11:30:48.937Z,2.56
2023-05-01T11:33:24.122Z,2.74
2023-05-01T11:36:01.815Z,2.94
2023-05-01T11:38:29.292Z,2.71
2023-05-01T11:41:00.163Z,2.53
2023-05-01T11:43:27.654Z,2.52
2023-05-01T11:45:55.365Z,2.54
2023-05-01T11:48:24.474Z,2.92
2023-05-01T11:50:51.590Z,2.68
2023-05-01T11:53:18.904Z,2.70
2023-05-01T11:55:46.739Z,2.82
2023-05-01T11:58:13.953Z,2.61
2023-05-01T12:00:43.190Z,2.15
2023-05-01T12:03:12.668Z,2.20
2023-05-01T12:05:43.535Z,2.19
2023-05-01T12:08:13.689Z,1.97
2023-05-01T12:10:43.184Z,1.85
2023-05-01T12:13:12.372Z,2.19
2023-05-01T12:15:41.194Z,1.91
2023-05-01T12:18:09.395Z,1.69
2023-05-01T12:20:39.546Z,1.82
2023-05-01T12:23:09.976Z,1.70
2023-05-01T12:25:38.170Z,1.44
2023-05-01T12:28:10.094Z,1.75
2023-05-01T12:30:38.135Z,1.50
2023-05-01T12:33:14.514Z,1.59
2023-05-01T12:35:43.433Z,1.42
2023-05-01T12:38:14.140Z,1.51
2023-05-01T12:40:50.192Z,1.75
2023-05-01T12:43:17.951Z,1.33
2023-05-01T12:45:45.252Z,1.50
2023-05-01T12:48:13.793Z,1.61
2023-05-01T12:50:41.891Z,1.70
2023-05-01T12:53:11.577Z,1.45
2023-05-01T12:55:46.773Z,1.55
2023-05-01T12:58:14.132Z,1.57
2023-05-01T13:00:50.209Z,1.49
2023-05-01T13:03:24.507Z,1.43
2023-05-01T13:05:54.154Z,1.33
2023-05-01T13:08:31.104Z,1.36
2023-05-01T13:11:01.129Z,1.26
2023-05-01T13:13:30.751Z,1.47
2023-05-01T13:16:05.781Z,1.32
2023-05-01T13:18:34.052Z,1.25
2023-05-01T13:21:08.937Z,1.32
2023-05-01T13:23:39.163Z,1.61
2023-05-01T13:26:07.773Z,1.62
2023-05-01T13:28:36.316Z,1.55
2023-05-01T13:31:12.034Z,1.42
2023-05-01T13:33:40.382Z,1.35
2023-05-01T13:36:17.824Z,1.29
2023-05-01T13:38:55.294Z,1.50
2023-05-01T13:41:24.513Z,1.37
2023-05-01T13:43:53.167Z,1.66
2023-05-01T13:46:23.370Z,1.53
2023-05-01T13:48:51.004Z,1.67
2023-05-01T13:51:21.429Z,1.84
2023-05-01T13:53:48.626Z,1.48
2023-05-01T13:56:17.222Z,1.43
2023-05-01T13:58:44.664Z,1.45
2023-05-01T14:01:16.555Z,1.35
2023-05-01T14:03:44.000Z,1.30
2023-05-01T14:06:14.672Z,1.33
2023-05-01T14:08:42.845Z,1.29
2023-05-01T14:11:11.293Z,1.37
2023-05-01T14:13:42.560Z,1.41
2023-05-01T14:16:12.102Z,1.48
2023-05-01T14:18:45.723Z,1.31
2023-05-01T14:21:15.026Z,1.45
2023-05-01T14:23:42.213Z,1.66
2023-05-01T14:26:09.896Z,1.09
2023-05-01T14:28:42.437Z,1.24
2023-05-01T14:31:14.029Z,1.09
2023-05-01T14:33:42.752Z,1.11
2023-05-01T14:36:09.932Z,1.16
2023-05-01T14:38:38.869Z,1.09
2023-05-01T14:41:06.272Z,1.15
2023-05-01T14:43:34.549Z,0.99
2023-05-01T14:46:03.324Z,0.85
2023-05-01T14:48:35.956Z,1.03
2023-05-01T14:51:05.079Z,0.95
2023-05-01T14:53:33.692Z,0.95
2023-05-01T14:56:00.918Z,1.19
2023-05-01T14:58:28.434Z,1.19
2023-05-01T15:00:55.536Z,1.41
2023-05-01T15:03:24.231Z,1.43
2023-05-01T15:05:51.441Z,1.34
2023-05-01T15:08:18.628Z,0.92
2023-05-01T15:10:45.867Z,1.15
2023-05-01T15:13:13.196Z,1.14
2023-05-01T15:15:40.480Z,1.35
2023-05-01T15:18:07.865Z,1.16
2023-05-01T15:20:36.504Z,1.27
2023-05-01T15:23:03.788Z,1.22
2023-05-01T15:25:30.983Z,1.37
2023-05-01T15:27:58.145Z,1.57
2023-05-01T15:30:25.281Z,1.36
2023-05-01T15:32:54.179Z,1.28
2023-05-01T15:35:21.665Z,1.13
2023-05-01T15:37:50.332Z,1.36
2023-05-01T15:40:17.872Z,1.44
2023-05-01T15:42:45.723Z,1.98
2023-05-01T15:45:12.911Z,1.81
2023-05-01T15:47:40.192Z,1.73
2023-05-01T15:50:10.822Z,1.67
2023-05-01T15:52:38.334Z,1.73
2023-05-01T15:55:08.241Z,1.77
2023-05-01T15:57:35.541Z,1.64
2023-05-01T16:00:03.015Z,1.44
2023-05-01T16:02:31.394Z,1.60
2023-05-01T16:04:58.776Z,1.50
2023-05-01T16:07:26.136Z,1.93
2023-05-01T16:09:53.335Z,1.80
2023-05-01T16:12:21.894Z,1.90
2023-05-01T16:14:49.133Z,2.04
2023-05-01T16:17:17.670Z,1.69
2023-05-01T16:19:44.989Z,1.64
2023-05-01T16:22:12.199Z,1.59
2023-05-01T16:24:39.419Z,1.78
2023-05-01T16:27:06.910Z,1.76
2023-05-01T16:29:35.704Z,1.60
2023-05-01T16:32:05.258Z,1.72
2023-05-01T16:34:33.071Z,1.87
2023-05-01T16:37:00.251Z,1.70
2023-05-01T16:39:27.518Z,1.94
2023-05-01T16:41:55.287Z,1.69
2023-05-01T16:44:23.330Z,1.56
2023-05-01T16:46:54.830Z,1.51
2023-05-01T16:49:23.185Z,1.42
2023-05-01T16:51:50.947Z,1.40
2023-05-01T16:54:18.397Z,1.52
2023-05-01T16:56:45.673Z,1.60
2023-05-01T16:59:12.778Z,1.67
2023-05-01T17:01:39.976Z,1.75
2023-05-01T17:04:08.664Z,1.80
2023-05-01T17:06:35.926Z,1.71
2023-05-01T17:09:03.238Z,1.77
2023-05-01T17:11:31.971Z,1.79
2023-05-01T17:13:59.330Z,2.15
2023-05-01T17:16:26.563Z,2.21
2023-05-01T17:18:53.799Z,2.21
2023-05-01T17:21:22.714Z,2.22
2023-05-01T17:23:50.028Z,2.59
2023-05-01T17:26:17.302Z,2.63
2023-05-01T17:28:44.378Z,2.54
2023-05-01T17:31:11.539Z,2.62
2023-05-01T17:33:39.840Z,2.56
2023-05-01T17:36:07.753Z,2.57
2023-05-01T17:38:36.833Z,2.85
2023-05-01T17:41:03.933Z,2.96
2023-05-01T17:43:31.091Z,2.94
2023-05-01T17:45:58.306Z,2.70
2023-05-01T17:48:25.832Z,2.35
2023-05-01T17:50:53.256Z,2.39
2023-05-01T17:53:20.713Z,2.71
2023-05-01T17:55:49.356Z,2.60
2023-05-01T17:58:17.036Z,2.49
2023-05-01T18:00:44.873Z,3.12
2023-05-01T18:03:12.761Z,2.92
2023-05-01T18:05:40.050Z,2.75
2023-05-01T18:08:07.167Z,2.86
2023-05-01T18:10:34.630Z,3.05
2023-05-01T18:13:03.352Z,2.82
2023-05-01T18:15:30.530Z,2.82
2023-05-01T18:17:57.782Z,2.45
2023-05-01T18:20:26.933Z,2.55
2023-05-01T18:22:54.278Z,2.54
2023-05-01T18:25:21.448Z,2.53
2023-05-01T18:27:48.593Z,2.48
2023-05-01T18:30:17.279Z,2.44
2023-05-01T18:32:47.596Z,2.62
2023-05-01T18:35:16.884Z,2.33
2023-05-01T18:37:44.352Z,2.35
2023-05-01T18:40:12.664Z,2.33
2023-05-01T18:42:40.622Z,2.61
2023-05-01T18:45:09.255Z,2.95
2023-05-01T18:47:37.865Z,2.75
2023-05-01T18:50:06.481Z,2.79
2023-05-01T18:52:33.594Z,2.63
2023-05-01T18:55:00.634Z,2.56
2023-05-01T18:57:27.791Z,3.02
2023-05-01T18:59:55.015Z,2.38
2023-05-01T19:02:22.204Z,2.26
2023-05-01T19:04:57.335Z,2.32
2023-05-01T19:07:25.501Z,2.22
2023-05-01T19:09:52.730Z,2.16
2023-05-01T19:12:20.037Z,2.53
2023-05-01T19:14:47.248Z,2.29
2023-05-01T19:17:14.449Z,2.24
2023-05-01T19:19:41.694Z,1.91
2023-05-01T19:22:10.476Z,2.29
2023-05-01T19:24:37.744Z,2.15
2023-05-01T19:27:05.012Z,2.11
2023-05-01T19:29:43.109Z,2.02
2023-05-01T19:32:11.754Z,1.99
2023-05-01T19:34:39.183Z,2.20
2023-05-01T19:37:06.331Z,2.00
2023-05-01T19:39:34.953Z,2.38
2023-05-01T19:42:02.279Z,2.18
2023-05-01T19:44:29.429Z,2.37
2023-05-01T19:46:56.641Z,2.10
2023-05-01T19:49:24.290Z,2.37
2023-05-01T19:51:51.568Z,2.29
2023-05-01T19:54:18.711Z,2.09
2023-05-01T19:56:47.537Z,2.29
2023-05-01T19:59:14.733Z,2.23
2023-05-01T20:01:41.990Z,2.68
2023-05-01T20:04:09.707Z,2.74
2023-05-01T20:06:37.124Z,2.96
2023-05-01T20:09:04.474Z,3.08
2023-05-01T20:11:31.642Z,3.05
2023-05-01T20:14:00.317Z,3.10
2023-05-01T20:16:28.125Z,3.34
2023-05-01T20:18:55.422Z,3.01
2023-05-01T20:21:22.655Z,3.39
2023-05-01T20:23:49.849Z,3.32
2023-05-01T20:26:17.012Z,3.21
2023-05-01T20:28:44.190Z,3.44
2023-05-01T20:31:12.845Z,3.43
2023-05-01T20:33:39.973Z,3.75
2023-05-01T20:36:07.349Z,3.90
2023-05-01T20:38:41.119Z,3.72
2023-05-01T20:41:08.228Z,4.23
2023-05-01T20:43:35.487Z,4.36
2023-05-01T20:46:02.721Z,4.35
2023-05-01T20:48:32.628Z,4.45
2023-05-01T20:50:59.808Z,5.16
2023-05-01T20:53:27.074Z,4.46
2023-05-01T20:55:54.428Z,4.56
2023-05-01T20:58:21.526Z,4.47
2023-05-01T21:00:48.606Z,4.98
2023-05-01T21:03:16.687Z,4.56
2023-05-01T21:05:45.285Z,4.47
2023-05-01T21:08:12.562Z,4.03
2023-05-01T21:10:40.227Z,4.19
2023-05-01T21:13:07.484Z,4.27
2023-05-01T21:15:34.767Z,4.58
2023-05-01T21:18:02.382Z,4.53
2023-05-01T21:20:32.384Z,5.17
2023-05-01T21:23:02.304Z,4.84
2023-05-01T21:25:30.381Z,3.86
2023-05-01T21:27:58.086Z,4.07
2023-05-01T21:30:31.299Z,3.69
2023-05-01T21:32:58.507Z,3.65
2023-05-01T21:35:26.001Z,3.94
2023-05-01T21:37:53.268Z,3.67
2023-05-01T21:40:22.087Z,3.86
2023-05-01T21:42:50.324Z,3.71
2023-05-01T21:45:19.808Z,3.80
2023-05-01T21:47:49.317Z,3.80
2023-05-01T21:50:19.534Z,3.37
2023-05-01T21:52:48.258Z,3.07
2023-05-01T21:55:19.110Z,2.78
2023-05-01T21:57:47.961Z,2.49
2023-05-01T22:00:15.249Z,2.09
2023-05-01T22:02:44.088Z,2.05
2023-05-01T22:05:14.159Z,1.83
2023-05-01T22:07:42.880Z,1.94
2023-05-01T22:10:12.444Z,1.82
2023-05-01T22:12:40.263Z,1.78
2023-05-01T22:15:11.066Z,1.79
2023-05-01T22:17:39.529Z,1.85
2023-05-01T22:20:09.375Z,1.81
2023-05-01T22:22:38.568Z,1.85
2023-05-01T22:25:07.028Z,1.68
2023-05-01T22:27:34.549Z,1.74
2023-05-01T22:30:02.516Z,1.73
2023-05-01T22:32:31.664Z,1.69
2023-05-01T22:34:58.928Z,1.66
2023-05-01T22:37:26.089Z,1.72
2023-05-01T22:39:53.294Z,1.60
2023-05-01T22:42:20.457Z,1.64
2023-05-01T22:44:47.577Z,1.54
2023-05-01T22:47:14.709Z,1.47
2023-05-01T22:49:43.286Z,1.46
2023-05-01T22:52:10.426Z,1.67
2023-05-01T22:54:37.528Z,1.57
2023-05-01T22:57:04.967Z,1.61
2023-05-01T22:59:32.152Z,1.62
2023-05-01T23:02:02.071Z,1.75
2023-05-01T23:04:29.248Z,1.79
2023-05-01T23:06:57.968Z,1.67
2023-05-01T23:09:25.168Z,1.67
2023-05-01T23:11:52.302Z,1.70
2023-05-01T23:14:19.510Z,1.59
2023-05-01T23:16:46.598Z,1.74
2023-05-01T23:19:20.927Z,1.71
2023-05-01T23:21:48.884Z,1.59
2023-05-01T23:24:19.195Z,1.54
2023-05-01T23:26:46.669Z,1.72
2023-05-01T23:29:16.289Z,1.91
2023-05-01T23:31:46.548Z,1.80
2023-05-01T23:34:16.328Z,1.96
2023-05-01T23:36:45.507Z,1.83
2023-05-01T23:39:13.451Z,1.85
2023-05-01T23:41:42.942Z,1.98
2023-05-01T23:44:10.246Z,2.11
2023-05-01T23:46:38.857Z,1.90
2023-05-01T23:49:06.575Z,1.94
2023-05-01T23:51:34.086Z,1.91
2023-05-01T23:54:01.088Z,2.12
2023-05-01T23:56:28.191Z,2.13
2023-05-01T23:58:56.748Z,2.01
